createdAt,value
2022-10-19T00:01:21.863Z,9.25
2022-10-19T00:03:52.998Z,8.47
2022-10-19T00:06:35.447Z,9.37
2022-10-19T00:09:11.609Z,8.05
2022-10-19T00:11:42.061Z,8.98
2022-10-19T00:14:18.207Z,8.82
2022-10-19T00:16:47.776Z,8.63
2022-10-19T00:19:21.114Z,8.47
2022-10-19T00:21:51.973Z,8.73
2022-10-19T00:24:22.071Z,8.85
2022-10-19T00:26:49.874Z,8.63
2022-10-19T00:29:17.499Z,9.00
2022-10-19T00:31:45.126Z,9.20
2022-10-19T00:34:12.689Z,9.37
2022-10-19T00:36:41.954Z,8.48
2022-10-19T00:39:13.389Z,8.65
2022-10-19T00:41:42.094Z,8.63
2022-10-19T00:44:12.746Z,8.82
2022-10-19T00:46:45.188Z,8.63
2022-10-19T00:49:18.207Z,9.10
2022-10-19T00:51:49.238Z,9.43
2022-10-19T00:54:17.875Z,8.93
2022-10-19T00:56:48.980Z,9.00
2022-10-19T00:59:20.594Z,9.50
2022-10-19T01:01:50.184Z,9.50
2022-10-19T01:04:20.399Z,9.23
2022-10-19T01:06:48.280Z,9.30
2022-10-19T01:09:15.898Z,9.90
2022-10-19T01:11:52.577Z,10.38
2022-10-19T01:14:42.738Z,9.33
2022-10-19T01:17:22.598Z,9.03
2022-10-19T01:20:19.579Z,9.40
2022-10-19T01:23:00.128Z,9.07
2022-10-19T01:25:57.114Z,8.68
2022-10-19T01:28:49.527Z,8.98
2022-10-19T01:31:45.697Z,9.50
2022-10-19T01:34:39.109Z,9.50
2022-10-19T01:37:19.904Z,9.32
2022-10-19T01:39:57.447Z,9.05
2022-10-19T01:42:32.323Z,8.75
2022-10-19T01:45:03.131Z,9.13
2022-10-19T01:47:48.278Z,9.45
2022-10-19T01:50:25.794Z,9.13
2022-10-19T01:52:55.686Z,9.02
2022-10-19T01:55:26.832Z,9.10
2022-10-19T01:58:02.823Z,8.85
2022-10-19T02:00:33.075Z,9.48
2022-10-19T02:03:01.259Z,8.75
2022-10-19T02:05:32.226Z,8.50
2022-10-19T02:08:03.832Z,8.73
2022-10-19T02:10:35.378Z,9.25
2022-10-19T02:13:04.683Z,9.27
2022-10-19T02:15:38.430Z,8.65
2022-10-19T02:18:07.398Z,9.40
2022-10-19T02:20:37.341Z,8.60
2022-10-19T02:23:08.463Z,9.00
2022-10-19T02:25:36.969Z,8.93
2022-10-19T02:28:05.759Z,8.55
2022-10-19T02:30:33.465Z,8.45
2022-10-19T02:33:01.131Z,9.17
2022-10-19T02:35:29.109Z,9.17
2022-10-19T02:38:01.182Z,8.40
2022-10-19T02:40:33.989Z,8.48
2022-10-19T02:43:05.918Z,8.45
2022-10-19T02:45:38.995Z,8.95
2022-10-19T02:48:12.926Z,8.15
2022-10-19T02:50:44.999Z,7.73
2022-10-19T02:53:13.910Z,7.43
2022-10-19T02:55:42.739Z,7.57
2022-10-19T02:58:12.599Z,7.88
2022-10-19T03:00:40.135Z,7.55
2022-10-19T03:03:07.950Z,7.78
2022-10-19T03:05:35.430Z,6.90
2022-10-19T03:08:02.940Z,7.78
2022-10-19T03:10:30.531Z,7.05
2022-10-19T03:12:59.017Z,6.93
2022-10-19T03:15:29.248Z,6.80
2022-10-19T03:17:57.358Z,6.73
2022-10-19T03:20:25.051Z,7.30
2022-10-19T03:25:21.140Z,7.28
2022-10-19T03:27:48.816Z,7.75
2022-10-19T03:30:16.383Z,7.07
2022-10-19T03:32:43.887Z,7.07
2022-10-19T03:35:11.469Z,7.53
2022-10-19T03:37:39.008Z,7.82
2022-10-19T03:40:07.021Z,7.60
2022-10-19T03:42:34.543Z,7.18
2022-10-19T03:45:02.147Z,7.33
2022-10-19T03:47:29.764Z,7.90
2022-10-19T03:49:57.912Z,7.32
2022-10-19T03:52:25.565Z,7.47
2022-10-19T03:54:53.177Z,7.63
2022-10-19T03:57:20.765Z,7.50
2022-10-19T03:59:49.085Z,7.30
2022-10-19T04:02:19.079Z,7.50
2022-10-19T04:04:46.590Z,7.25
2022-10-19T04:07:14.115Z,7.00
2022-10-19T04:09:41.665Z,7.30
2022-10-19T04:12:09.373Z,7.18
2022-10-19T04:14:52.496Z,6.63
2022-10-19T04:17:24.570Z,7.23
2022-10-19T04:19:52.080Z,7.53
2022-10-19T04:22:19.619Z,6.95
2022-10-19T04:24:47.176Z,7.63
2022-10-19T04:27:14.787Z,7.13
2022-10-19T04:29:42.320Z,6.70
2022-10-19T04:32:09.866Z,7.53
2022-10-19T04:34:39.922Z,7.10
2022-10-19T04:37:07.800Z,6.85
2022-10-19T04:39:39.465Z,7.38
2022-10-19T04:42:07.101Z,7.22
2022-10-19T04:44:34.665Z,6.87
2022-10-19T04:47:02.408Z,7.55
2022-10-19T04:49:29.894Z,8.40
2022-10-19T04:51:57.517Z,7.53
2022-10-19T04:54:25.180Z,7.50
2022-10-19T04:56:54.040Z,7.33
2022-10-19T04:59:21.738Z,7.83
2022-10-19T05:01:49.334Z,8.13
2022-10-19T05:04:16.896Z,9.27
2022-10-19T05:06:44.471Z,7.80
2022-10-19T05:09:12.048Z,7.93
2022-10-19T05:11:39.734Z,7.78
2022-10-19T05:14:09.586Z,7.53
2022-10-19T05:16:39.550Z,7.30
2022-10-19T05:19:17.376Z,7.90
2022-10-19T05:21:45.446Z,7.45
2022-10-19T05:24:13.624Z,8.32
2022-10-19T05:26:41.293Z,9.20
2022-10-19T05:29:11.719Z,9.80
2022-10-19T05:31:39.590Z,10.48
2022-10-19T05:36:41.063Z,9.20
2022-10-19T05:39:18.692Z,8.25
2022-10-19T05:41:47.718Z,8.83
2022-10-19T05:44:18.150Z,11.50
2022-10-19T05:46:46.254Z,8.82
2022-10-19T05:49:14.696Z,8.77
2022-10-19T05:51:43.578Z,9.05
2022-10-19T05:54:12.417Z,9.02
2022-10-19T05:56:41.575Z,9.50
2022-10-19T05:59:13.959Z,10.10
2022-10-19T06:01:41.763Z,8.60
2022-10-19T06:04:10.997Z,8.05
2022-10-19T06:06:38.839Z,8.02
2022-10-19T06:09:06.499Z,8.20
2022-10-19T06:11:36.797Z,7.80
2022-10-19T06:14:07.455Z,10.50
2022-10-19T06:16:35.714Z,11.27
2022-10-19T06:19:04.835Z,10.32
2022-10-19T06:21:33.959Z,9.95
2022-10-19T06:24:04.094Z,11.25
2022-10-19T06:26:33.193Z,9.50
2022-10-19T06:29:01.867Z,10.03
2022-10-19T06:31:31.810Z,10.60
2022-10-19T06:33:59.831Z,9.93
2022-10-19T06:36:30.025Z,10.52
2022-10-19T06:38:57.569Z,10.07
2022-10-19T06:41:25.410Z,10.73
2022-10-19T06:43:54.538Z,9.80
2022-10-19T06:46:24.691Z,12.27
2022-10-19T06:48:58.317Z,11.40
2022-10-19T06:51:27.822Z,10.88
2022-10-19T06:53:57.263Z,11.40
2022-10-19T06:56:26.427Z,12.40
2022-10-19T06:58:55.242Z,12.50
2022-10-19T07:01:23.504Z,11.70
2022-10-19T07:03:55.461Z,13.48
2022-10-19T07:06:23.694Z,12.77
2022-10-19T07:08:53.442Z,12.88
2022-10-19T07:11:25.013Z,12.00
2022-10-19T07:13:53.545Z,11.90
2022-10-19T07:16:22.063Z,10.47
2022-10-19T07:18:53.681Z,11.02
2022-10-19T07:21:23.318Z,9.82
2022-10-19T07:23:51.398Z,8.52
2022-10-19T07:26:26.783Z,7.50
2022-10-19T07:28:56.673Z,7.93
2022-10-19T07:31:25.369Z,8.33
2022-10-19T07:33:57.108Z,10.30
2022-10-19T07:36:25.845Z,7.72
2022-10-19T07:38:53.971Z,8.02
2022-10-19T07:41:23.583Z,8.32
2022-10-19T07:43:52.425Z,7.72
2022-10-19T07:46:22.460Z,8.80
2022-10-19T07:48:50.512Z,7.75
2022-10-19T07:51:19.315Z,7.45
2022-10-19T07:53:48.117Z,7.25
2022-10-19T07:56:23.785Z,8.63
2022-10-19T07:58:52.684Z,7.55
2022-10-19T08:01:23.159Z,7.60
2022-10-19T08:06:41.174Z,7.73
2022-10-19T08:09:08.795Z,9.65
2022-10-19T08:11:36.815Z,7.90
2022-10-19T08:14:04.720Z,7.95
2022-10-19T08:16:39.049Z,7.70
2022-10-19T08:19:09.410Z,8.07
2022-10-19T08:21:40.815Z,8.03
2022-10-19T08:24:09.545Z,7.83
2022-10-19T08:26:39.145Z,7.70
2022-10-19T08:29:10.495Z,7.20
2022-10-19T08:31:38.614Z,7.35
2022-10-19T08:34:06.617Z,7.43
2022-10-19T08:36:35.845Z,6.45
2022-10-19T08:39:06.271Z,7.00
2022-10-19T08:42:04.775Z,7.50
2022-10-19T08:44:53.595Z,7.63
2022-10-19T08:47:51.282Z,6.50
2022-10-19T08:50:25.622Z,10.20
2022-10-19T08:53:05.784Z,8.48
2022-10-19T08:55:44.357Z,6.50
2022-10-19T08:58:27.839Z,6.00
2022-10-19T09:01:09.487Z,6.40
2022-10-19T09:03:56.656Z,6.57
2022-10-19T09:06:32.282Z,5.30
2022-10-19T09:09:00.009Z,5.95
2022-10-19T09:11:35.721Z,5.60
2022-10-19T09:14:23.519Z,5.57
2022-10-19T09:16:51.176Z,6.13
2022-10-19T09:19:26.100Z,5.30
2022-10-19T09:21:57.760Z,6.03
2022-10-19T09:24:43.968Z,5.30
2022-10-19T09:27:21.041Z,5.50
2022-10-19T09:29:55.629Z,6.05
2022-10-19T09:32:32.685Z,6.20
2022-10-19T09:35:03.976Z,4.95
2022-10-19T09:37:37.211Z,5.50
2022-10-19T09:40:06.650Z,10.63
2022-10-19T09:42:37.093Z,5.57
2022-10-19T09:45:24.394Z,6.23
2022-10-19T09:47:53.302Z,6.33
2022-10-19T09:50:23.498Z,5.90
2022-10-19T09:52:57.734Z,6.30
2022-10-19T09:55:44.362Z,6.18
2022-10-19T09:58:16.180Z,5.25
2022-10-19T10:00:45.637Z,5.90
2022-10-19T10:03:40.447Z,5.78
2022-10-19T10:06:19.083Z,5.47
2022-10-19T10:08:49.605Z,5.93
2022-10-19T10:11:24.883Z,5.82
2022-10-19T10:13:54.899Z,6.25
2022-10-19T10:16:24.917Z,5.75
2022-10-19T10:19:01.187Z,6.63
2022-10-19T10:21:36.908Z,5.80
2022-10-19T10:24:06.235Z,5.70
2022-10-19T10:26:40.465Z,5.77
2022-10-19T10:29:26.602Z,6.63
2022-10-19T10:32:17.818Z,7.38
2022-10-19T10:35:02.211Z,7.10
2022-10-19T10:37:31.167Z,8.35
2022-10-19T10:40:02.019Z,7.20
2022-10-19T10:42:44.340Z,6.50
2022-10-19T10:45:23.074Z,7.10
2022-10-19T10:47:51.431Z,6.70
2022-10-19T10:50:24.810Z,6.35
2022-10-19T10:53:07.937Z,6.78
2022-10-19T10:55:35.578Z,6.43
2022-10-19T10:58:47.827Z,6.28
2022-10-19T11:01:24.296Z,7.00
2022-10-19T11:04:00.225Z,7.00
2022-10-19T11:06:28.011Z,7.23
2022-10-19T11:09:09.611Z,8.07
2022-10-19T11:11:42.216Z,7.53
2022-10-19T11:14:44.060Z,6.95
2022-10-19T11:17:18.602Z,6.45
2022-10-19T11:19:46.565Z,7.35
2022-10-19T11:22:26.250Z,7.80
2022-10-19T11:25:31.671Z,7.88
2022-10-19T11:28:19.404Z,7.40
2022-10-19T11:30:56.111Z,8.17
2022-10-19T11:36:30.925Z,19.48
2022-10-19T11:39:21.607Z,7.60
2022-10-19T11:42:00.996Z,9.55
2022-10-19T11:44:58.906Z,7.03
2022-10-19T11:48:04.066Z,7.93
2022-10-19T11:51:21.029Z,12.13
2022-10-19T11:54:10.031Z,8.25
2022-10-19T11:57:05.547Z,8.30
2022-10-19T12:00:27.090Z,7.37
2022-10-19T12:03:08.709Z,6.80
2022-10-19T12:06:08.157Z,7.78
2022-10-19T12:09:00.722Z,7.07
2022-10-19T12:11:54.282Z,6.32
2022-10-19T12:14:26.868Z,6.95
2022-10-19T12:17:00.834Z,6.35
2022-10-19T12:19:35.532Z,6.30
2022-10-19T12:22:09.547Z,6.97
2022-10-19T12:24:37.241Z,7.20
2022-10-19T12:27:05.558Z,6.47
2022-10-19T12:29:39.995Z,7.53
2022-10-19T12:32:08.326Z,6.80
2022-10-19T12:34:56.622Z,7.00
2022-10-19T12:37:41.427Z,6.70
2022-10-19T12:40:25.819Z,6.40
2022-10-19T12:43:17.409Z,6.35
2022-10-19T12:46:03.377Z,6.03
2022-10-19T12:48:31.121Z,7.15
2022-10-19T12:51:01.588Z,6.50
2022-10-19T12:53:31.326Z,7.73
2022-10-19T12:56:23.246Z,7.03
2022-10-19T12:58:55.406Z,6.85
2022-10-19T13:01:30.463Z,6.90
2022-10-19T13:04:18.812Z,6.75
2022-10-19T13:07:10.994Z,7.60
2022-10-19T13:09:46.945Z,8.70
2022-10-19T13:12:21.796Z,7.30
2022-10-19T13:15:02.855Z,7.93
2022-10-19T13:17:50.171Z,6.43
2022-10-19T13:20:18.279Z,7.38
2022-10-19T13:22:47.423Z,7.63
2022-10-19T13:25:28.164Z,7.88
2022-10-19T13:28:21.982Z,7.50
2022-10-19T13:30:49.583Z,7.68
2022-10-19T13:33:28.647Z,8.10
2022-10-19T13:35:58.996Z,8.30
2022-10-19T13:38:29.836Z,7.73
2022-10-19T13:41:00.521Z,7.83
2022-10-19T13:43:52.063Z,9.00
2022-10-19T13:46:28.727Z,7.45
2022-10-19T13:49:18.551Z,9.93
2022-10-19T13:52:10.878Z,9.88
2022-10-19T13:55:00.193Z,8.90
2022-10-19T13:57:32.082Z,10.13
2022-10-19T14:00:11.406Z,10.88
2022-10-19T14:03:01.371Z,9.40
2022-10-19T14:05:54.673Z,9.40
2022-10-19T14:08:37.422Z,9.02
2022-10-19T14:11:13.341Z,9.80
2022-10-19T14:13:40.899Z,10.30
2022-10-19T14:16:19.716Z,9.95
2022-10-19T14:18:57.431Z,9.75
2022-10-19T14:21:33.624Z,9.20
2022-10-19T14:24:01.281Z,9.40
2022-10-19T14:26:31.340Z,8.80
2022-10-19T14:29:00.221Z,10.38
2022-10-19T14:31:36.601Z,14.75
2022-10-19T14:34:08.160Z,10.32
2022-10-19T14:36:39.954Z,9.40
2022-10-19T14:39:08.326Z,9.55
2022-10-19T14:41:37.407Z,9.57
2022-10-19T14:44:41.362Z,10.17
2022-10-19T14:47:21.473Z,9.40
2022-10-19T14:49:50.136Z,10.23
2022-10-19T14:52:39.722Z,9.35
2022-10-19T14:55:17.842Z,10.02
2022-10-19T14:57:49.319Z,10.10
2022-10-19T15:00:22.687Z,10.82
2022-10-19T15:03:12.034Z,10.38
2022-10-19T15:05:47.146Z,11.60
2022-10-19T15:08:47.696Z,10.90
2022-10-19T15:11:29.867Z,9.80
2022-10-19T15:14:06.271Z,10.57
2022-10-19T15:17:08.225Z,10.23
2022-10-19T15:19:38.897Z,9.82
2022-10-19T15:22:10.472Z,10.15
2022-10-19T15:24:40.507Z,10.07
2022-10-19T15:27:19.602Z,12.68
2022-10-19T15:29:58.476Z,13.20
2022-10-19T15:32:32.365Z,12.03
2022-10-19T15:34:59.971Z,13.00
2022-10-19T15:37:27.600Z,10.45
2022-10-19T15:39:55.167Z,11.70
2022-10-19T15:42:44.563Z,9.13
2022-10-19T15:45:34.111Z,10.70
2022-10-19T15:48:10.792Z,10.27
2022-10-19T15:50:42.689Z,11.50
2022-10-19T15:53:10.603Z,10.70
2022-10-19T15:55:38.101Z,11.43
2022-10-19T15:58:05.659Z,12.85
2022-10-19T16:00:33.466Z,9.65
2022-10-19T16:03:01.068Z,13.50
2022-10-19T16:05:29.631Z,10.77
2022-10-19T16:07:57.545Z,8.77
2022-10-19T16:10:26.750Z,10.95
2022-10-19T16:12:54.361Z,11.32
2022-10-19T16:15:23.683Z,10.82
2022-10-19T16:17:55.077Z,9.68
2022-10-19T16:20:23.398Z,11.48
2022-10-19T16:22:51.675Z,11.37
2022-10-19T16:25:19.578Z,12.55
2022-10-19T16:27:48.103Z,14.02
2022-10-19T16:30:15.640Z,14.07
2022-10-19T16:32:43.267Z,13.05
2022-10-19T16:35:11.776Z,12.13
2022-10-19T16:37:39.379Z,11.17
2022-10-19T16:40:07.707Z,13.80
2022-10-19T16:42:35.567Z,13.68
2022-10-19T16:45:04.630Z,12.07
2022-10-19T16:47:32.193Z,13.27
2022-10-19T16:50:01.934Z,10.40
2022-10-19T16:52:33.030Z,12.13
2022-10-19T16:55:01.140Z,11.07
2022-10-19T16:57:28.740Z,11.40
2022-10-19T16:59:56.427Z,15.32
2022-10-19T17:02:24.046Z,13.93
2022-10-19T17:04:51.850Z,11.43
2022-10-19T17:07:22.590Z,11.88
2022-10-19T17:09:54.520Z,12.77
2022-10-19T17:12:24.080Z,12.30
2022-10-19T17:14:51.681Z,10.45
2022-10-19T17:17:19.244Z,11.32
2022-10-19T17:19:47.755Z,12.02
2022-10-19T17:22:15.409Z,12.55
2022-10-19T17:24:43.042Z,11.23
2022-10-19T17:27:10.659Z,12.53
2022-10-19T17:29:38.272Z,12.10
2022-10-19T17:32:06.257Z,11.13
2022-10-19T17:34:36.368Z,11.32
2022-10-19T17:37:03.989Z,11.23
2022-10-19T17:39:32.191Z,11.48
2022-10-19T17:42:04.376Z,11.65
2022-10-19T17:44:32.085Z,11.47
2022-10-19T17:47:00.773Z,10.43
2022-10-19T17:49:30.041Z,10.95
2022-10-19T17:51:57.991Z,12.82
2022-10-19T17:54:25.738Z,13.85
2022-10-19T17:56:53.327Z,12.77
2022-10-19T17:59:30.139Z,16.67
2022-10-19T18:02:04.870Z,12.63
2022-10-19T18:04:33.500Z,13.43
2022-10-19T18:07:01.068Z,14.02
2022-10-19T18:09:28.662Z,11.82
2022-10-19T18:11:56.249Z,12.45
2022-10-19T18:14:26.242Z,12.98
2022-10-19T18:16:53.811Z,12.27
2022-10-19T18:19:21.373Z,12.53
2022-10-19T18:21:49.296Z,12.63
2022-10-19T18:24:20.314Z,13.02
2022-10-19T18:26:49.795Z,13.65
2022-10-19T18:29:23.463Z,13.15
2022-10-19T18:31:55.106Z,12.82
2022-10-19T18:34:25.485Z,13.07
2022-10-19T18:36:53.589Z,13.25
2022-10-19T18:39:21.753Z,12.93
2022-10-19T18:41:56.613Z,13.00
2022-10-19T18:44:27.398Z,15.10
2022-10-19T18:46:57.166Z,14.75
2022-10-19T18:49:26.316Z,13.38
2022-10-19T18:51:55.703Z,12.70
2022-10-19T18:54:26.544Z,13.83
2022-10-19T18:56:55.515Z,12.43
2022-10-19T18:59:23.556Z,13.27
2022-10-19T19:01:51.375Z,12.95
2022-10-19T19:04:19.006Z,13.95
2022-10-19T19:06:46.630Z,12.85
2022-10-19T19:09:14.391Z,13.70
2022-10-19T19:11:42.121Z,14.00
2022-10-19T19:14:19.150Z,12.95
2022-10-19T19:16:47.163Z,11.50
2022-10-19T19:19:16.240Z,10.80
2022-10-19T19:21:44.800Z,12.00
2022-10-19T19:24:15.583Z,10.60
2022-10-19T19:26:49.542Z,10.60
2022-10-19T19:29:18.097Z,10.40
2022-10-19T19:31:48.407Z,10.23
2022-10-19T19:34:16.240Z,10.82
2022-10-19T19:36:48.362Z,10.48
2022-10-19T19:39:19.540Z,10.52
2022-10-19T19:41:48.367Z,9.95
2022-10-19T19:44:16.817Z,9.07
2022-10-19T19:46:44.510Z,10.17
2022-10-19T19:49:12.413Z,9.65
2022-10-19T19:51:40.038Z,9.75
2022-10-19T19:54:07.658Z,8.63
2022-10-19T19:56:37.332Z,9.15
2022-10-19T19:59:06.038Z,9.27
2022-10-19T20:01:33.876Z,8.90
2022-10-19T20:06:40.466Z,8.70
2022-10-19T20:09:09.014Z,8.52
2022-10-19T20:11:41.892Z,8.25
2022-10-19T20:14:11.025Z,9.45
2022-10-19T20:16:38.633Z,8.50
2022-10-19T20:19:14.536Z,8.33
2022-10-19T20:21:42.070Z,8.70
2022-10-19T20:24:09.855Z,8.85
2022-10-19T20:26:37.859Z,9.55
2022-10-19T20:29:05.439Z,9.50
2022-10-19T20:31:39.405Z,9.13
2022-10-19T20:34:09.600Z,9.70
2022-10-19T20:36:42.065Z,9.63
2022-10-19T20:39:10.163Z,8.90
2022-10-19T20:41:37.790Z,9.77
2022-10-19T20:44:05.457Z,9.63
2022-10-19T20:46:33.084Z,9.50
2022-10-19T20:49:01.741Z,9.13
2022-10-19T20:51:32.553Z,9.67
2022-10-19T20:54:02.248Z,8.68
2022-10-19T20:56:33.625Z,9.35
2022-10-19T20:59:09.295Z,8.98
2022-10-19T21:01:38.829Z,9.48
2022-10-19T21:04:08.360Z,9.83
2022-10-19T21:06:40.341Z,9.30
2022-10-19T21:09:08.841Z,9.70
2022-10-19T21:11:38.742Z,9.70
2022-10-19T21:14:36.373Z,9.50
2022-10-19T21:17:05.160Z,9.45
2022-10-19T21:19:32.720Z,9.77
2022-10-19T21:22:02.576Z,9.23
2022-10-19T21:24:33.081Z,9.25
2022-10-19T21:27:02.266Z,8.40
2022-10-19T21:29:29.825Z,9.73
2022-10-19T21:32:01.701Z,9.27
2022-10-19T21:34:30.483Z,9.80
2022-10-19T21:36:58.637Z,9.52
2022-10-19T21:39:26.307Z,9.70
2022-10-19T21:41:57.204Z,9.57
2022-10-19T21:44:27.874Z,9.77
2022-10-19T21:46:55.573Z,9.13
2022-10-19T21:49:23.199Z,9.63
2022-10-19T21:51:55.320Z,9.18
2022-10-19T21:54:25.339Z,8.70
2022-10-19T21:56:53.561Z,8.52
2022-10-19T21:59:21.397Z,8.75
2022-10-19T22:01:49.014Z,8.97
2022-10-19T22:04:18.223Z,9.53
2022-10-19T22:06:46.375Z,8.80
2022-10-19T22:09:20.503Z,8.77
2022-10-19T22:11:48.389Z,8.70
2022-10-19T22:14:18.803Z,8.63
2022-10-19T22:16:46.423Z,8.87
2022-10-19T22:19:14.426Z,7.87
2022-10-19T22:21:42.185Z,8.88
2022-10-19T22:24:13.416Z,9.55
2022-10-19T22:26:44.863Z,8.93
2022-10-19T22:29:13.009Z,9.18
2022-10-19T22:31:43.872Z,8.57
2022-10-19T22:34:15.910Z,8.20
2022-10-19T22:36:44.567Z,8.73
2022-10-19T22:39:16.671Z,8.18
2022-10-19T22:42:40.341Z,8.80
2022-10-19T22:45:29.058Z,8.15
2022-10-19T22:47:57.815Z,8.10
2022-10-19T22:50:26.264Z,8.30
2022-10-19T22:52:56.104Z,8.27
2022-10-19T22:55:26.323Z,7.97
2022-10-19T22:57:54.042Z,8.23
2022-10-19T23:00:21.652Z,7.57
2022-10-19T23:02:49.247Z,7.73
2022-10-19T23:05:16.830Z,7.97
2022-10-19T23:07:45.561Z,8.40
2022-10-19T23:10:13.261Z,7.57
2022-10-19T23:12:40.996Z,7.07
2022-10-19T23:15:09.324Z,7.38
2022-10-19T23:17:39.768Z,7.50
2022-10-19T23:20:08.130Z,7.27
2022-10-19T23:22:35.862Z,7.72
2022-10-19T23:25:03.627Z,7.30
2022-10-19T23:27:31.428Z,7.25
2022-10-19T23:30:02.100Z,7.80
2022-10-19T23:32:32.759Z,7.30
2022-10-19T23:35:00.385Z,7.13
2022-10-19T23:37:28.070Z,7.38
2022-10-19T23:39:57.896Z,7.43
2022-10-19T23:42:28.557Z,6.75
2022-10-19T23:44:56.256Z,6.82
2022-10-19T23:47:23.840Z,6.70
2022-10-19T23:49:51.683Z,7.07
2022-10-19T23:52:19.251Z,6.80
2022-10-19T23:54:46.781Z,6.97
2022-10-19T23:57:14.406Z,7.30
2022-10-19T23:59:42.033Z,7.00
